Maysfield, Texas
Current Conditions -  °F | °C
As of 6:55 AM on Wednesday 26 Nov 2014 (Local Time) from KT35 Reporting Station
Clear Clear  
Wind Chill: 37°   Ceiling: Unl
Heat Index: 43°   Visibility: 10mi
Dew Point: 34°   Wind: 12mph
Humidity: 70%   Direction: 200°SSW
Pressure: 30.16"   Gusts: NA
Location:  30.9°N, 96.85°W
Report Text: KT35 261255Z AUTO 20010KT 10SM CLR 06/01 A3016 RMK AO2 T00620010
Loading
Personal Weather Stations






























Interactive Weather Map New forecast layout! Learn more

10-Day Weather Forecast

Advertisements
Track Severe Weather on mobile